Terminal Aerodrome Forecast
Issued by NWS

Home | Current Version | Previous Version | Text Only | Print | Product List | Glossary On
Versions: 1 2 3 4 5 6 7 8 9 10 11 12 13
000
FTUS45 KGJT 111128
TAFCNY
TAF
KCNY 111128Z 1112/1212 32008KT P6SM VCSH BKN050 OVC060
      TEMPO 1112/1114 4SM -FZRASN BR OVC020
     FM111500 28006KT P6SM SCT050 BKN150
     FM111800 30005KT P6SM FEW100 SCT150
     FM120600 22004KT P6SM SCT250=

USA.gov is the U.S. government's official web portal to all federal, state and local government web resources and services.